sensor_id;sensor_type;location;lat;lon;timestamp;pressure;altitude;pressure_sealevel;temperature;humidity
68075;BME280;54864;52.002;5.468;2023-04-06T00:00:01;101701.34;;;4.50;59.97
68075;BME280;54864;52.002;5.468;2023-04-06T00:01:08;101701.31;;;4.59;60.55
68075;BME280;54864;52.002;5.468;2023-04-06T00:02:09;101699.56;;;4.60;59.68
68075;BME280;54864;52.002;5.468;2023-04-06T00:03:11;101698.72;;;4.58;60.36
68075;BME280;54864;52.002;5.468;2023-04-06T00:04:12;101699.59;;;4.57;60.08
68075;BME280;54864;52.002;5.468;2023-04-06T00:05:14;101698.69;;;4.61;59.96
68075;BME280;54864;52.002;5.468;2023-04-06T00:06:15;101693.53;;;4.45;60.28
68075;BME280;54864;52.002;5.468;2023-04-06T00:07:17;101686.50;;;4.61;60.35
68075;BME280;54864;52.002;5.468;2023-04-06T00:08:17;101695.22;;;4.60;60.46
68075;BME280;54864;52.002;5.468;2023-04-06T00:09:21;101696.94;;;4.63;60.27
68075;BME280;54864;52.002;5.468;2023-04-06T00:10:22;101696.09;;;4.53;60.17
68075;BME280;54864;52.002;5.468;2023-04-06T00:11:24;101694.38;;;4.55;60.22
68075;BME280;54864;52.002;5.468;2023-04-06T00:12:25;101694.34;;;4.54;60.65
68075;BME280;54864;52.002;5.468;2023-04-06T00:13:29;101691.69;;;4.64;59.95
68075;BME280;54864;52.002;5.468;2023-04-06T00:14:30;101694.31;;;4.66;59.94
68075;BME280;54864;52.002;5.468;2023-04-06T00:15:31;101688.19;;;4.68;60.22
68075;BME280;54864;52.002;5.468;2023-04-06T00:16:33;101688.25;;;4.55;60.04
68075;BME280;54864;52.002;5.468;2023-04-06T00:17:35;101684.81;;;4.50;60.42
68075;BME280;54864;52.002;5.468;2023-04-06T00:18:41;101689.16;;;4.55;60.42
68075;BME280;54864;52.002;5.468;2023-04-06T00:19:43;101687.44;;;4.48;60.77
68075;BME280;54864;52.002;5.468;2023-04-06T00:20:44;101688.25;;;4.53;60.50
68075;BME280;54864;52.002;5.468;2023-04-06T00:21:45;101687.44;;;4.45;60.35
68075;BME280;54864;52.002;5.468;2023-04-06T00:22:46;101686.53;;;4.52;60.64
68075;BME280;54864;52.002;5.468;2023-04-06T00:23:48;101684.78;;;4.59;59.77
68075;BME280;54864;52.002;5.468;2023-04-06T00:24:49;101683.06;;;4.49;59.84
68075;BME280;54864;52.002;5.468;2023-04-06T00:25:50;101679.63;;;4.45;60.23
68075;BME280;54864;52.002;5.468;2023-04-06T00:26:51;101680.47;;;4.49;61.00
68075;BME280;54864;52.002;5.468;2023-04-06T00:27:55;101679.59;;;4.48;60.44
68075;BME280;54864;52.002;5.468;2023-04-06T00:28:56;101680.47;;;4.47;60.47
68075;BME280;54864;52.002;5.468;2023-04-06T00:29:59;101673.56;;;4.40;60.49
68075;BME280;54864;52.002;5.468;2023-04-06T00:31:01;101676.19;;;4.35;61.23
68075;BME280;54864;52.002;5.468;2023-04-06T00:32:04;101676.19;;;4.37;61.21
68075;BME280;54864;52.002;5.468;2023-04-06T00:33:05;101674.38;;;4.48;60.89
68075;BME280;54864;52.002;5.468;2023-04-06T00:34:07;101669.13;;;4.56;60.70
68075;BME280;54864;52.002;5.468;2023-04-06T00:35:08;101664.78;;;4.50;59.94
68075;BME280;54864;52.002;5.468;2023-04-06T00:36:10;101670.84;;;4.54;60.06
68075;BME280;54864;52.002;5.468;2023-04-06T00:37:11;101664.78;;;4.50;60.89
68075;BME280;54864;52.002;5.468;2023-04-06T00:38:14;101661.28;;;4.53;60.57
68075;BME280;54864;52.002;5.468;2023-04-06T00:39:15;101659.56;;;4.49;60.38
68075;BME280;54864;52.002;5.468;2023-04-06T00:40:17;101664.75;;;4.53;60.45
68075;BME280;54864;52.002;5.468;2023-04-06T00:41:18;101657.00;;;4.44;60.38
68075;BME280;54864;52.002;5.468;2023-04-06T00:42:21;101659.59;;;4.47;61.41
68075;BME280;54864;52.002;5.468;2023-04-06T00:43:26;101664.81;;;4.45;61.05
68075;BME280;54864;52.002;5.468;2023-04-06T00:44:30;101661.34;;;4.43;60.45
68075;BME280;54864;52.002;5.468;2023-04-06T00:45:32;101653.47;;;4.50;60.66
68075;BME280;54864;52.002;5.468;2023-04-06T00:46:34;101660.41;;;4.52;61.27
68075;BME280;54864;52.002;5.468;2023-04-06T00:47:37;101658.69;;;4.53;60.81
68075;BME280;54864;52.002;5.468;2023-04-06T00:48:40;101656.09;;;4.46;60.72
68075;BME280;54864;52.002;5.468;2023-04-06T00:49:41;101659.56;;;4.50;60.93
68075;BME280;54864;52.002;5.468;2023-04-06T00:50:42;101645.63;;;4.53;61.45
68075;BME280;54864;52.002;5.468;2023-04-06T00:51:43;101652.59;;;4.49;60.51
68075;BME280;54864;52.002;5.468;2023-04-06T00:52:45;101650.84;;;4.53;61.00
68075;BME280;54864;52.002;5.468;2023-04-06T00:53:48;101649.16;;;4.42;61.23
68075;BME280;54864;52.002;5.468;2023-04-06T00:54:50;101645.69;;;4.42;60.99
68075;BME280;54864;52.002;5.468;2023-04-06T00:55:51;101651.78;;;4.42;60.44
68075;BME280;54864;52.002;5.468;2023-04-06T00:56:53;101651.84;;;4.35;61.23
68075;BME280;54864;52.002;5.468;2023-04-06T00:57:54;101648.28;;;4.43;60.90
68075;BME280;54864;52.002;5.468;2023-04-06T00:58:55;101650.03;;;4.46;60.83
68075;BME280;54864;52.002;5.468;2023-04-06T00:59:56;101647.34;;;4.54;60.86
68075;BME280;54864;52.002;5.468;2023-04-06T01:00:58;101649.09;;;4.53;61.17
68075;BME280;54864;52.002;5.468;2023-04-06T01:01:59;101638.66;;;4.53;61.28
68075;BME280;54864;52.002;5.468;2023-04-06T01:03:03;101636.03;;;4.53;60.47
68075;BME280;54864;52.002;5.468;2023-04-06T01:04:06;101640.47;;;4.43;60.55
68075;BME280;54864;52.002;5.468;2023-04-06T01:05:08;101643.06;;;4.46;61.18
68075;BME280;54864;52.002;5.468;2023-04-06T01:06:09;101636.94;;;4.49;60.59
68075;BME280;54864;52.002;5.468;2023-04-06T01:07:11;101636.00;;;4.61;60.81
68075;BME280;54864;52.002;5.468;2023-04-06T01:08:11;101636.03;;;4.53;60.67
68075;BME280;54864;52.002;5.468;2023-04-06T01:09:13;101626.47;;;4.52;60.58
68075;BME280;54864;52.002;5.468;2023-04-06T01:10:22;101636.13;;;4.41;60.82
68075;BME280;54864;52.002;5.468;2023-04-06T01:11:24;101631.69;;;4.54;60.87
68075;BME280;54864;52.002;5.468;2023-04-06T01:12:25;101632.63;;;4.45;61.34
68075;BME280;54864;52.002;5.468;2023-04-06T01:13:27;101625.59;;;4.55;61.67
68075;BME280;54864;52.002;5.468;2023-04-06T01:14:30;101628.22;;;4.53;61.33
68075;BME280;54864;52.002;5.468;2023-04-06T01:15:33;101627.34;;;4.56;61.56
68075;BME280;54864;52.002;5.468;2023-04-06T01:16:35;101627.31;;;4.60;61.75
68075;BME280;54864;52.002;5.468;2023-04-06T01:17:37;101631.66;;;4.60;61.11
68075;BME280;54864;52.002;5.468;2023-04-06T01:18:39;101623.72;;;4.72;61.71
68075;BME280;54864;52.002;5.468;2023-04-06T01:19:42;101619.38;;;4.74;60.91
68075;BME280;54864;52.002;5.468;2023-04-06T01:20:44;101631.53;;;4.76;61.75
68075;BME280;54864;52.002;5.468;2023-04-06T01:21:49;101625.50;;;4.70;61.56
68075;BME280;54864;52.002;5.468;2023-04-06T01:22:52;101625.53;;;4.65;61.08
68075;BME280;54864;52.002;5.468;2023-04-06T01:23:53;101622.03;;;4.68;61.17
68075;BME280;54864;52.002;5.468;2023-04-06T01:24:57;101616.72;;;4.77;61.01
68075;BME280;54864;52.002;5.468;2023-04-06T01:25:58;101619.34;;;4.77;62.32
68075;BME280;54864;52.002;5.468;2023-04-06T01:26:59;101614.94;;;4.81;61.58
68075;BME280;54864;52.002;5.468;2023-04-06T01:28:02;101618.38;;;4.86;61.16
68075;BME280;54864;52.002;5.468;2023-04-06T01:29:03;101614.91;;;4.85;61.69
68075;BME280;54864;52.002;5.468;2023-04-06T01:30:06;101612.28;;;4.87;61.32
68075;BME280;54864;52.002;5.468;2023-04-06T01:31:08;101609.59;;;4.94;61.01
68075;BME280;54864;52.002;5.468;2023-04-06T01:32:10;101611.28;;;5.00;60.81
68075;BME280;54864;52.002;5.468;2023-04-06T01:33:11;101610.28;;;5.12;61.27
68075;BME280;54864;52.002;5.468;2023-04-06T01:34:13;101608.53;;;5.12;61.17
68075;BME280;54864;52.002;5.468;2023-04-06T01:35:14;101612.03;;;5.11;60.88
68075;BME280;54864;52.002;5.468;2023-04-06T01:36:16;101600.81;;;5.01;60.65
68075;BME280;54864;52.002;5.468;2023-04-06T01:37:16;101611.19;;;5.09;61.44
68075;BME280;54864;52.002;5.468;2023-04-06T01:38:20;101603.25;;;5.21;61.16
68075;BME280;54864;52.002;5.468;2023-04-06T01:39:21;101605.06;;;5.13;60.65
68075;BME280;54864;52.002;5.468;2023-04-06T01:40:24;101606.75;;;5.16;60.91
68075;BME280;54864;52.002;5.468;2023-04-06T01:41:25;101602.38;;;5.19;59.86
68075;BME280;54864;52.002;5.468;2023-04-06T01:42:27;101602.34;;;5.24;60.11
68075;BME280;54864;52.002;5.468;2023-04-06T01:43:28;101600.53;;;5.30;60.54
68075;BME280;54864;52.002;5.468;2023-04-06T01:44:30;101597.94;;;5.29;60.56
68075;BME280;54864;52.002;5.468;2023-04-06T01:45:30;101600.56;;;5.29;59.93
68075;BME280;54864;52.002;5.468;2023-04-06T01:46:33;101598.78;;;5.31;61.01
68075;BME280;54864;52.002;5.468;2023-04-06T01:47:33;101597.91;;;5.30;59.96
68075;BME280;54864;52.002;5.468;2023-04-06T01:48:35;101589.16;;;5.36;60.36
68075;BME280;54864;52.002;5.468;2023-04-06T01:49:36;101598.66;;;5.41;60.93
68075;BME280;54864;52.002;5.468;2023-04-06T01:50:38;101594.22;;;5.48;60.33
68075;BME280;54864;52.002;5.468;2023-04-06T01:51:41;101594.22;;;5.50;61.66
68075;BME280;54864;52.002;5.468;2023-04-06T01:52:45;101592.38;;;5.56;61.03
68075;BME280;54864;52.002;5.468;2023-04-06T01:53:48;101595.78;;;5.63;60.77
68075;BME280;54864;52.002;5.468;2023-04-06T01:54:50;101585.31;;;5.64;61.06
68075;BME280;54864;52.002;5.468;2023-04-06T01:55:50;101588.69;;;5.72;60.80
68075;BME280;54864;52.002;5.468;2023-04-06T01:56:52;101591.28;;;5.74;60.30
68075;BME280;54864;52.002;5.468;2023-04-06T01:57:53;101587.97;;;5.60;60.50
68075;BME280;54864;52.002;5.468;2023-04-06T01:58:55;101586.13;;;5.68;60.91
68075;BME280;54864;52.002;5.468;2023-04-06T01:59:56;101584.47;;;5.61;61.17
68075;BME280;54864;52.002;5.468;2023-04-06T02:00:58;101580.91;;;5.66;60.70
68075;BME280;54864;52.002;5.468;2023-04-06T02:01:59;101579.03;;;5.76;60.58
68075;BME280;54864;52.002;5.468;2023-04-06T02:03:01;101579.09;;;5.71;60.27
68075;BME280;54864;52.002;5.468;2023-04-06T02:04:02;101579.03;;;5.76;60.28
68075;BME280;54864;52.002;5.468;2023-04-06T02:05:05;101581.59;;;5.81;60.30
68075;BME280;54864;52.002;5.468;2023-04-06T02:06:06;101578.06;;;5.85;60.20
68075;BME280;54864;52.002;5.468;2023-04-06T02:07:08;101576.31;;;5.90;60.43
68075;BME280;54864;52.002;5.468;2023-04-06T02:08:08;101575.41;;;5.92;60.08
68075;BME280;54864;52.002;5.468;2023-04-06T02:09:12;101577.91;;;5.98;59.85
68075;BME280;54864;52.002;5.468;2023-04-06T02:10:13;101576.16;;;5.99;60.07
68075;BME280;54864;52.002;5.468;2023-04-06T02:11:15;101569.13;;;6.02;59.72
68075;BME280;54864;52.002;5.468;2023-04-06T02:12:16;101565.63;;;6.03;59.43
68075;BME280;54864;52.002;5.468;2023-04-06T02:13:18;101566.44;;;6.07;59.23
68075;BME280;54864;52.002;5.468;2023-04-06T02:14:19;101570.78;;;6.10;58.83
68075;BME280;54864;52.002;5.468;2023-04-06T02:15:20;101565.53;;;6.10;58.78
68075;BME280;54864;52.002;5.468;2023-04-06T02:16:21;101565.59;;;6.07;59.68
68075;BME280;54864;52.002;5.468;2023-04-06T02:17:26;101562.03;;;6.11;59.47
68075;BME280;54864;52.002;5.468;2023-04-06T02:18:27;101565.44;;;6.16;59.75
68075;BME280;54864;52.002;5.468;2023-04-06T02:19:29;101562.81;;;6.16;59.79
68075;BME280;54864;52.002;5.468;2023-04-06T02:20:29;101555.78;;;6.19;60.50
68075;BME280;54864;52.002;5.468;2023-04-06T02:21:34;101559.22;;;6.23;59.94
68075;BME280;54864;52.002;5.468;2023-04-06T02:22:35;101553.97;;;6.24;59.57
68075;BME280;54864;52.002;5.468;2023-04-06T02:23:37;101566.09;;;6.30;59.22
68075;BME280;54864;52.002;5.468;2023-04-06T02:24:39;101557.41;;;6.28;58.94
68075;BME280;54864;52.002;5.468;2023-04-06T02:25:41;101560.88;;;6.30;58.92
68075;BME280;54864;52.002;5.468;2023-04-06T02:26:42;101550.34;;;6.31;57.57
68075;BME280;54864;52.002;5.468;2023-04-06T02:27:43;101551.22;;;6.32;58.21
68075;BME280;54864;52.002;5.468;2023-04-06T02:28:44;101549.38;;;6.39;59.05
68075;BME280;54864;52.002;5.468;2023-04-06T02:29:46;101549.41;;;6.37;58.32
68075;BME280;54864;52.002;5.468;2023-04-06T02:30:47;101547.56;;;6.42;58.56
68075;BME280;54864;52.002;5.468;2023-04-06T02:31:48;101549.28;;;6.43;58.14
68075;BME280;54864;52.002;5.468;2023-04-06T02:32:52;101551.00;;;6.46;57.58
68075;BME280;54864;52.002;5.468;2023-04-06T02:33:54;101550.13;;;6.45;58.14
68075;BME280;54864;52.002;5.468;2023-04-06T02:34:55;101539.66;;;6.45;57.31
68075;BME280;54864;52.002;5.468;2023-04-06T02:35:57;101544.91;;;6.44;56.51
68075;BME280;54864;52.002;5.468;2023-04-06T02:36:57;101540.53;;;6.46;57.75
68075;BME280;54864;52.002;5.468;2023-04-06T02:37:59;101542.25;;;6.47;56.92
68075;BME280;54864;52.002;5.468;2023-04-06T02:39:00;101539.59;;;6.51;57.09
68075;BME280;54864;52.002;5.468;2023-04-06T02:40:04;101541.25;;;6.55;57.04
68075;BME280;54864;52.002;5.468;2023-04-06T02:41:09;101549.13;;;6.55;56.66
68075;BME280;54864;52.002;5.468;2023-04-06T02:42:11;101536.06;;;6.52;57.24
68075;BME280;54864;52.002;5.468;2023-04-06T02:43:14;101536.91;;;6.54;57.26
68075;BME280;54864;52.002;5.468;2023-04-06T02:44:19;101542.13;;;6.56;57.61
68075;BME280;54864;52.002;5.468;2023-04-06T02:45:20;101534.22;;;6.59;57.56
68075;BME280;54864;52.002;5.468;2023-04-06T02:46:24;101529.84;;;6.59;57.16
68075;BME280;54864;52.002;5.468;2023-04-06T02:47:25;101539.38;;;6.63;57.42
68075;BME280;54864;52.002;5.468;2023-04-06T02:48:27;101534.16;;;6.62;56.59
68075;BME280;54864;52.002;5.468;2023-04-06T02:49:30;101535.16;;;6.55;56.90
68075;BME280;54864;52.002;5.468;2023-04-06T02:50:32;101535.13;;;6.56;57.91
68075;BME280;54864;52.002;5.468;2023-04-06T02:51:32;101529.00;;;6.57;57.66
68075;BME280;54864;52.002;5.468;2023-04-06T02:52:34;101531.50;;;6.63;57.86
68075;BME280;54864;52.002;5.468;2023-04-06T02:53:37;101533.25;;;6.63;57.46
68075;BME280;54864;52.002;5.468;2023-04-06T02:54:39;101527.25;;;6.58;56.42
68075;BME280;54864;52.002;5.468;2023-04-06T02:55:41;101526.38;;;6.57;56.90
68075;BME280;54864;52.002;5.468;2023-04-06T02:56:43;101527.16;;;6.62;58.16
68075;BME280;54864;52.002;5.468;2023-04-06T02:57:43;101521.03;;;6.63;58.15
68075;BME280;54864;52.002;5.468;2023-04-06T02:58:45;101525.44;;;6.61;57.78
68075;BME280;54864;52.002;5.468;2023-04-06T02:59:46;101519.34;;;6.59;58.11
68075;BME280;54864;52.002;5.468;2023-04-06T03:00:48;101521.09;;;6.60;57.75
68075;BME280;54864;52.002;5.468;2023-04-06T03:01:50;101522.88;;;6.58;56.89
68075;BME280;54864;52.002;5.468;2023-04-06T03:02:51;101522.00;;;6.58;57.72
68075;BME280;54864;52.002;5.468;2023-04-06T03:03:52;101514.06;;;6.62;57.84
68075;BME280;54864;52.002;5.468;2023-04-06T03:04:54;101517.56;;;6.61;57.25
68075;BME280;54864;52.002;5.468;2023-04-06T03:05:55;101516.69;;;6.62;57.94
68075;BME280;54864;52.002;5.468;2023-04-06T03:06:58;101517.53;;;6.64;57.40
68075;BME280;54864;52.002;5.468;2023-04-06T03:07:59;101510.59;;;6.62;57.30
68075;BME280;54864;52.002;5.468;2023-04-06T03:09:01;101511.53;;;6.58;57.18
68075;BME280;54864;52.002;5.468;2023-04-06T03:10:02;101512.53;;;6.51;57.48
68075;BME280;54864;52.002;5.468;2023-04-06T03:11:05;101512.38;;;6.60;57.94
68075;BME280;54864;52.002;5.468;2023-04-06T03:12:06;101508.84;;;6.61;58.41
68075;BME280;54864;52.002;5.468;2023-04-06T03:13:09;101514.94;;;6.63;58.79
68075;BME280;54864;52.002;5.468;2023-04-06T03:14:10;101509.66;;;6.64;58.65
68075;BME280;54864;52.002;5.468;2023-04-06T03:15:12;101510.59;;;6.62;58.72
68075;BME280;54864;52.002;5.468;2023-04-06T03:16:12;101509.63;;;6.66;58.48
68075;BME280;54864;52.002;5.468;2023-04-06T03:17:14;101506.97;;;6.69;57.78
68075;BME280;54864;52.002;5.468;2023-04-06T03:18:17;101507.88;;;6.66;58.19
68075;BME280;54864;52.002;5.468;2023-04-06T03:19:19;101507.00;;;6.66;58.42
68075;BME280;54864;52.002;5.468;2023-04-06T03:20:20;101507.06;;;6.63;58.75
68075;BME280;54864;52.002;5.468;2023-04-06T03:21:21;101504.44;;;6.63;58.56
68075;BME280;54864;52.002;5.468;2023-04-06T03:22:22;101508.78;;;6.64;58.01
68075;BME280;54864;52.002;5.468;2023-04-06T03:23:26;101503.59;;;6.62;59.02
68075;BME280;54864;52.002;5.468;2023-04-06T03:24:35;101504.44;;;6.63;58.31
68075;BME280;54864;52.002;5.468;2023-04-06T03:25:37;101504.41;;;6.64;57.69
68075;BME280;54864;52.002;5.468;2023-04-06T03:26:41;101502.75;;;6.60;57.32
68075;BME280;54864;52.002;5.468;2023-04-06T03:27:45;101495.66;;;6.65;57.03
68075;BME280;54864;52.002;5.468;2023-04-06T03:28:46;101498.25;;;6.67;57.76
68075;BME280;54864;52.002;5.468;2023-04-06T03:29:48;101500.00;;;6.68;58.08
68075;BME280;54864;52.002;5.468;2023-04-06T03:30:50;101500.94;;;6.64;57.94
68075;BME280;54864;52.002;5.468;2023-04-06T03:31:52;101496.56;;;6.64;58.57
68075;BME280;54864;52.002;5.468;2023-04-06T03:32:53;101500.13;;;6.60;57.97
68075;BME280;54864;52.002;5.468;2023-04-06T03:33:55;101497.47;;;6.62;58.34
68075;BME280;54864;52.002;5.468;2023-04-06T03:34:55;101497.47;;;6.62;58.57
68075;BME280;54864;52.002;5.468;2023-04-06T03:35:57;101497.41;;;6.66;58.04
68075;BME280;54864;52.002;5.468;2023-04-06T03:36:58;101499.97;;;6.70;57.55
68075;BME280;54864;52.002;5.468;2023-04-06T03:37:59;101491.31;;;6.64;58.19
68075;BME280;54864;52.002;5.468;2023-04-06T03:39:00;101496.44;;;6.71;57.92
68075;BME280;54864;52.002;5.468;2023-04-06T03:40:02;101496.50;;;6.67;57.21
68075;BME280;54864;52.002;5.468;2023-04-06T03:41:03;101494.81;;;6.65;57.34
68075;BME280;54864;52.002;5.468;2023-04-06T03:42:06;101493.09;;;6.62;57.41
68075;BME280;54864;52.002;5.468;2023-04-06T03:43:09;101499.09;;;6.69;58.34
68075;BME280;54864;52.002;5.468;2023-04-06T03:44:10;101499.88;;;6.74;58.39
68075;BME280;54864;52.002;5.468;2023-04-06T03:45:12;101495.66;;;6.65;57.66
68075;BME280;54864;52.002;5.468;2023-04-06T03:46:14;101499.22;;;6.63;57.31
68075;BME280;54864;52.002;5.468;2023-04-06T03:47:16;101493.16;;;6.59;56.79
68075;BME280;54864;52.002;5.468;2023-04-06T03:48:16;101493.03;;;6.65;57.05
68075;BME280;54864;52.002;5.468;2023-04-06T03:49:18;101496.66;;;6.60;56.55
68075;BME280;54864;52.002;5.468;2023-04-06T03:50:19;101491.31;;;6.64;57.59
68075;BME280;54864;52.002;5.468;2023-04-06T03:51:21;101495.63;;;6.67;57.46
68075;BME280;54864;52.002;5.468;2023-04-06T03:52:22;101488.66;;;6.66;57.60
68075;BME280;54864;52.002;5.468;2023-04-06T03:53:24;101487.78;;;6.67;57.44
68075;BME280;54864;52.002;5.468;2023-04-06T03:54:25;101487.91;;;6.59;57.64
68075;BME280;54864;52.002;5.468;2023-04-06T03:55:30;101492.19;;;6.65;57.37
68075;BME280;54864;52.002;5.468;2023-04-06T03:56:31;101483.41;;;6.67;57.01
68075;BME280;54864;52.002;5.468;2023-04-06T03:57:34;101491.31;;;6.64;56.57
68075;BME280;54864;52.002;5.468;2023-04-06T03:58:35;101484.28;;;6.66;56.63
68075;BME280;54864;52.002;5.468;2023-04-06T03:59:36;101493.94;;;6.64;56.41
68075;BME280;54864;52.002;5.468;2023-04-06T04:00:38;101487.06;;;6.59;57.02
68075;BME280;54864;52.002;5.468;2023-04-06T04:01:39;101488.63;;;6.67;57.16
68075;BME280;54864;52.002;5.468;2023-04-06T04:02:40;101491.44;;;6.58;56.87
68075;BME280;54864;52.002;5.468;2023-04-06T04:03:42;101488.00;;;6.55;56.53
68075;BME280;54864;52.002;5.468;2023-04-06T04:04:42;101494.09;;;6.57;56.82
68075;BME280;54864;52.002;5.468;2023-04-06T04:05:44;101494.88;;;6.60;56.60
68075;BME280;54864;52.002;5.468;2023-04-06T04:06:45;101487.91;;;6.59;56.79
68075;BME280;54864;52.002;5.468;2023-04-06T04:07:47;101491.41;;;6.60;56.83
68075;BME280;54864;52.002;5.468;2023-04-06T04:08:48;101497.47;;;6.62;57.35
68075;BME280;54864;52.002;5.468;2023-04-06T04:09:50;101494.03;;;6.60;57.48
68075;BME280;54864;52.002;5.468;2023-04-06T04:10:50;101489.72;;;6.57;57.46
68075;BME280;54864;52.002;5.468;2023-04-06T04:11:52;101493.13;;;6.61;57.63
68075;BME280;54864;52.002;5.468;2023-04-06T04:12:54;101494.88;;;6.60;57.60
68075;BME280;54864;52.002;5.468;2023-04-06T04:13:56;101492.25;;;6.62;57.65
68075;BME280;54864;52.002;5.468;2023-04-06T04:14:57;101494.88;;;6.60;57.51
68075;BME280;54864;52.002;5.468;2023-04-06T04:15:59;101495.88;;;6.55;57.61
68075;BME280;54864;52.002;5.468;2023-04-06T04:17:00;101494.03;;;6.60;57.57
68075;BME280;54864;52.002;5.468;2023-04-06T04:18:02;101496.75;;;6.54;57.35
68075;BME280;54864;52.002;5.468;2023-04-06T04:19:03;101492.41;;;6.53;57.47
68075;BME280;54864;52.002;5.468;2023-04-06T04:20:05;101488.94;;;6.51;57.96
68075;BME280;54864;52.002;5.468;2023-04-06T04:21:07;101495.00;;;6.54;58.10
68075;BME280;54864;52.002;5.468;2023-04-06T04:22:11;101499.31;;;6.57;58.28
68075;BME280;54864;52.002;5.468;2023-04-06T04:23:12;101495.06;;;6.48;58.26
68075;BME280;54864;52.002;5.468;2023-04-06T04:24:14;101490.72;;;6.50;58.46
68075;BME280;54864;52.002;5.468;2023-04-06T04:25:16;101489.84;;;6.48;58.29
68075;BME280;54864;52.002;5.468;2023-04-06T04:26:18;101489.81;;;6.50;58.58
68075;BME280;54864;52.002;5.468;2023-04-06T04:27:19;101483.78;;;6.45;58.25
68075;BME280;54864;52.002;5.468;2023-04-06T04:28:22;101489.84;;;6.48;58.15
68075;BME280;54864;52.002;5.468;2023-04-06T04:29:23;101480.25;;;6.47;58.03
68075;BME280;54864;52.002;5.468;2023-04-06T04:30:25;101487.22;;;6.48;58.31
68075;BME280;54864;52.002;5.468;2023-04-06T04:31:25;101488.13;;;6.46;58.56
68075;BME280;54864;52.002;5.468;2023-04-06T04:32:27;101487.28;;;6.45;58.76
68075;BME280;54864;52.002;5.468;2023-04-06T04:33:28;101480.31;;;6.44;58.77
68075;BME280;54864;52.002;5.468;2023-04-06T04:34:30;101481.19;;;6.43;59.10
68075;BME280;54864;52.002;5.468;2023-04-06T04:35:31;101490.88;;;6.40;58.18
68075;BME280;54864;52.002;5.468;2023-04-06T04:36:33;101476.03;;;6.39;58.16
68075;BME280;54864;52.002;5.468;2023-04-06T04:37:41;101487.50;;;6.33;58.05
68075;BME280;54864;52.002;5.468;2023-04-06T04:38:43;101488.47;;;6.26;58.55
68075;BME280;54864;52.002;5.468;2023-04-06T04:39:44;101483.25;;;6.26;58.98
68075;BME280;54864;52.002;5.468;2023-04-06T04:40:46;101480.50;;;6.33;59.04
68075;BME280;54864;52.002;5.468;2023-04-06T04:41:47;101477.97;;;6.29;58.87
68075;BME280;54864;52.002;5.468;2023-04-06T04:42:49;101479.69;;;6.30;58.51
68075;BME280;54864;52.002;5.468;2023-04-06T04:43:52;101480.50;;;6.33;58.79
68075;BME280;54864;52.002;5.468;2023-04-06T04:44:54;101479.69;;;6.30;58.73
68075;BME280;54864;52.002;5.468;2023-04-06T04:45:55;101478.75;;;6.34;59.28
68075;BME280;54864;52.002;5.468;2023-04-06T04:46:59;101477.09;;;6.28;59.32
68075;BME280;54864;52.002;5.468;2023-04-06T04:48:02;101471.88;;;6.27;59.52
68075;BME280;54864;52.002;5.468;2023-04-06T04:49:05;101469.34;;;6.22;59.60
68075;BME280;54864;52.002;5.468;2023-04-06T04:50:06;101480.59;;;6.27;59.70
68075;BME280;54864;52.002;5.468;2023-04-06T04:51:08;101477.97;;;6.29;59.84
68075;BME280;54864;52.002;5.468;2023-04-06T04:52:11;101475.31;;;6.30;60.05
68075;BME280;54864;52.002;5.468;2023-04-06T04:53:13;101478.94;;;6.22;59.98
68075;BME280;54864;52.002;5.468;2023-04-06T04:54:14;101477.09;;;6.28;60.75
68075;BME280;54864;52.002;5.468;2023-04-06T04:55:16;101480.56;;;6.30;60.02
68075;BME280;54864;52.002;5.468;2023-04-06T04:56:17;101471.88;;;6.27;59.92
68075;BME280;54864;52.002;5.468;2023-04-06T04:57:22;101475.56;;;6.15;59.77
68075;BME280;54864;52.002;5.468;2023-04-06T04:58:22;101475.78;;;6.03;60.33
68075;BME280;54864;52.002;5.468;2023-04-06T04:59:25;101477.47;;;6.06;60.46
68075;BME280;54864;52.002;5.468;2023-04-06T05:00:29;101479.09;;;6.13;60.58
68075;BME280;54864;52.002;5.468;2023-04-06T05:01:32;101473.91;;;6.11;61.07
68075;BME280;54864;52.002;5.468;2023-04-06T05:02:32;101472.06;;;6.16;60.64
68075;BME280;54864;52.002;5.468;2023-04-06T05:03:36;101482.50;;;6.19;60.50
68075;BME280;54864;52.002;5.468;2023-04-06T05:04:38;101476.38;;;6.20;59.95
68075;BME280;54864;52.002;5.468;2023-04-06T05:05:42;101476.31;;;6.23;60.14
68075;BME280;54864;52.002;5.468;2023-04-06T05:06:43;101480.75;;;6.18;60.17
68075;BME280;54864;52.002;5.468;2023-04-06T05:07:47;101478.06;;;6.23;60.44
68075;BME280;54864;52.002;5.468;2023-04-06T05:08:48;101478.94;;;6.23;60.33
68075;BME280;54864;52.002;5.468;2023-04-06T05:09:50;101477.19;;;6.24;60.70
68075;BME280;54864;52.002;5.468;2023-04-06T05:10:50;101473.63;;;6.26;60.70
68075;BME280;54864;52.002;5.468;2023-04-06T05:11:52;101475.41;;;6.26;60.52
68075;BME280;54864;52.002;5.468;2023-04-06T05:12:55;101472.78;;;6.26;59.66
68075;BME280;54864;52.002;5.468;2023-04-06T05:13:57;101481.44;;;6.29;59.82
68075;BME280;54864;52.002;5.468;2023-04-06T05:14:59;101471.78;;;6.33;59.41
68075;BME280;54864;52.002;5.468;2023-04-06T05:16:01;101469.13;;;6.34;59.14
68075;BME280;54864;52.002;5.468;2023-04-06T05:17:02;101462.97;;;6.37;59.12
68075;BME280;54864;52.002;5.468;2023-04-06T05:18:04;101466.41;;;6.41;59.76
68075;BME280;54864;52.002;5.468;2023-04-06T05:19:05;101468.03;;;6.46;59.19
68075;BME280;54864;52.002;5.468;2023-04-06T05:20:07;101471.47;;;6.50;58.51
68075;BME280;54864;52.002;5.468;2023-04-06T05:21:08;101468.00;;;6.51;57.96
68075;BME280;54864;52.002;5.468;2023-04-06T05:22:11;101463.72;;;6.44;59.05
68075;BME280;54864;52.002;5.468;2023-04-06T05:23:11;101468.06;;;6.45;59.30
68075;BME280;54864;52.002;5.468;2023-04-06T05:24:14;101462.72;;;6.52;58.99
68075;BME280;54864;52.002;5.468;2023-04-06T05:25:15;101467.06;;;6.55;58.73
68075;BME280;54864;52.002;5.468;2023-04-06T05:26:17;101464.38;;;6.58;58.54
68075;BME280;54864;52.002;5.468;2023-04-06T05:27:27;101465.22;;;6.60;59.34